North Shields, United Kingdom
Current Conditions -  °F | °C
As of 11:50 AM on Friday 24 Oct 2014 (Local Time) from EGNT Reporting Station
Few Clouds Few Clouds  
Wind Chill: 57°   Ceiling: Unl
Heat Index: 57°   Visibility: 6mi
Dew Point: 45°   Wind: 6mph
Humidity: 63%   Direction: 200°SSW
Pressure: 29.8"   Gusts: NA
Location:  55.01°N, 1.44°W
Report Text: EGNT 241050Z 20005KT 160V250 9999 FEW040 14/07 Q1009
Loading
Personal Weather Stations






























Interactive Weather Map
Tropical Storm Tracking
New forecast layout! Learn more

10-Day Weather Forecast

Advertisements
Track Severe Weather on mobile